Πλησιέστερες Αναφορές METAR

 

LGTS - Thessaloniki/Makedonia-Elev 7m
Απόσταση από σταθμό: Ν 13km
Ενημερώθηκε: 14/06/2024 08:50
Διάσπαρτα Νέφη
Διάσπαρτα Νέφη
 Ανεμοι από Δ
Ανεμος: Δ 11 km/h
Θερμοκρασία: 28°C
Δείκτης Δυσφορίας: 29°C
Σημείο Δρόσου: 18°C
Υγρασία: 55%
Βαρόμετρο: 1008 hPa
Νέφωση: Διάσπαρτα Νέφη
Ορατότητα: 10 km
Λεπτομέρειες Νεφών: Διάσπαρτα Νέφη 762 m
2024/06/14 05:50 LGTS 140550Z 28006KT 210V330 9999 FEW025 28/18 Q1008 NOSIG
LGAV - Athens/Elef. Venizelos-Elev 94m
Απόσταση από σταθμό: ΝΝΑ 312km
Ενημερώθηκε: 14/06/2024 09:20
Διάσπαρτα Νέφη
Διάσπαρτα Νέφη
 Ανεμοι από Ν
Ανεμος: Ν 15 km/h
Θερμοκρασία: 29°C
Δείκτης Δυσφορίας: 30°C
Σημείο Δρόσου: 19°C
Υγρασία: 55%
Βαρόμετρο: 1007 hPa
Νέφωση: Διάσπαρτα Νέφη
Ορατότητα: 10 km
Λεπτομέρειες Νεφών: Διάσπαρτα Νέφη 914 m
2024/06/14 06:20 LGAV 140620Z 19008KT 9999 FEW030 29/19 Q1007 NOSIG
 
LGAL - Alexandroupolis-Elev 3m
Απόσταση από σταθμό: Α 251km
Ενημερώθηκε: 14/06/2024 09:20
Διάσπαρτα Νέφη
Διάσπαρτα Νέφη
 Ανεμοι από ΒΒΑ
Ανεμος: ΒΒΑ 20 km/h
Θερμοκρασία: 31°C
Σημείο Δρόσου: 14°C
Υγρασία: 35%
Βαρόμετρο: 1006 hPa
Νέφωση: Διάσπαρτα Νέφη
Ορατότητα: 10 km
Λεπτομέρειες Νεφών: Διάσπαρτα Νέφη 762 m
2024/06/14 06:20 LGAL 140620Z 03011KT 9999 FEW025 31/14 Q1006
LGKV - Kavala/Crysoupolis-Elev 5m
Απόσταση από σταθμό: ΑΒΑ 144km
Ενημερώθηκε: 14/06/2024 09:20
Μερικώς νεφελώδης
Μερικώς νεφελώδης
 Ανεμοι από ΒΑ
Ανεμος: ΒΑ 9 km/h
Θερμοκρασία: 29°C
Δείκτης Δυσφορίας: 29°C
Σημείο Δρόσου: 17°C
Υγρασία: 48%
Βαρόμετρο: 1007 hPa
Νέφωση: Μερικώς νεφελώδης
Ορατότητα: 10 km
Λεπτομέρειες Νεφών: Διάσπαρτα Νέφη 914 m
Μερικώς νεφελώδης 2438 m
2024/06/14 06:20 LGKV 140620Z 05005KT 9999 FEW030 SCT080 29/17 Q1007
 
LGSK - Skiathos Island-Elev 15m
Απόσταση από σταθμό: ΝΝΑ 168km
Ενημερώθηκε: 14/06/2024 09:20
Αίθριος
Αίθριος
 Ανεμοι από ΒΒΔ
Ανεμος: ΒΒΔ 7 km/h
Θερμοκρασία: 27°C
Δείκτης Δυσφορίας: 31°C
Σημείο Δρόσου: 24°C
Υγρασία: 84%
Βαρόμετρο: 1007 hPa
Περίληψη: Αίθριος
Ορατότητα: πάνω από 10 km
2024/06/14 06:20 LGSK 140620Z 34004KT CAVOK 27/24 Q1007
LGLM - Limnos Island-Elev 5m
Απόσταση από σταθμό: ΑΝΑ 210km
Ενημερώθηκε: 14/06/2024 09:20
Διάσπαρτα Νέφη
Διάσπαρτα Νέφη
 Ανεμοι από Α
Ανεμος: Α 7 km/h
Θερμοκρασία: 28°C
Δείκτης Δυσφορίας: 28°C
Σημείο Δρόσου: 16°C
Υγρασία: 48%
Βαρόμετρο: 1006 hPa
Νέφωση: Διάσπαρτα Νέφη
Ορατότητα: 10 km
Λεπτομέρειες Νεφών: Διάσπαρτα Νέφη 762 m
2024/06/14 06:20 LGLM 140620Z 09004KT 9999 FEW025 28/16 Q1006
 
LGMT - Mitilini Island-Elev 17m
Απόσταση από σταθμό: ΑΝΑ 358km
Ενημερώθηκε: 14/06/2024 09:20
Μερικώς νεφελώδης
Μερικώς νεφελώδης
 Ανεμοι από ΝΝΑ
Ανεμος: ΝΝΑ 30 km/h
Θερμοκρασία: 30°C
Δείκτης Δυσφορίας: 30°C
Σημείο Δρόσου: 16°C
Υγρασία: 43%
Βαρόμετρο: 1008 hPa
Νέφωση: Μερικώς νεφελώδης
Ορατότητα: 10 km
Λεπτομέρειες Νεφών: Μερικώς νεφελώδης 762 m
2024/06/14 06:20 LGMT 140620Z 15016KT 9999 SCT025 30/16 Q1008
LGSY - Skiros Island-Elev 15m
Απόσταση από σταθμό: ΝΑ 227km
Ενημερώθηκε: 14/06/2024 08:50
Διάσπαρτα Νέφη
Διάσπαρτα Νέφη
 Ανεμοι από ΝΔ
Ανεμος: ΝΔ 28 km/h
Θερμοκρασία: 28°C
Δείκτης Δυσφορίας: 29°C
Σημείο Δρόσου: 20°C
Υγρασία: 62%
Βαρόμετρο: 1006 hPa
Νέφωση: Διάσπαρτα Νέφη
Ορατότητα: 10 km
Λεπτομέρειες Νεφών: Διάσπαρτα Νέφη 1067 m
2024/06/14 05:50 LGSY 140550Z 22015KT 9999 FEW035 28/20 Q1006 RMK SCT100 SCT180 BLU
 
LGKZ - Kozani-Elev 628m
Απόσταση από σταθμό: ΔΝΔ 102km
Ενημερώθηκε: 14/06/2024 08:50
Αίθριος
Αίθριος
 Ανεμοι από ΒΒΔ
Ανεμος: ΒΒΔ 7 km/h
Θερμοκρασία: 25°C
Σημείο Δρόσου: 10°C
Υγρασία: 39%
Βαρόμετρο: 1013 hPa
Περίληψη: Αίθριος
Ορατότητα: πάνω από 10 km
2024/06/14 05:50 LGKZ 140550Z 33004KT CAVOK 25/10 Q1013
LGIO - Ioannina-Elev 476m
Απόσταση από σταθμό: ΔΝΔ 209km
Ενημερώθηκε: 14/06/2024 09:20
Διάσπαρτα Νέφη
Διάσπαρτα Νέφη
 Ανεμοι από μεταβλητός
Ανεμος: μεταβλητός 0 km/h
Θερμοκρασία: 22°C
Σημείο Δρόσου: 16°C
Υγρασία: 69%
Βαρόμετρο: 1014 hPa
Νέφωση: Διάσπαρτα Νέφη
Ορατότητα: 10 km
Λεπτομέρειες Νεφών: Διάσπαρτα Νέφη 914 m
2024/06/14 06:20 LGIO 140620Z /////KT 9999 FEW030 22/16 Q1014
 
LGZA - Zakinthos-Elev 3m
Απόσταση από σταθμό: ΝΝΔ 367km
Ενημερώθηκε: 14/06/2024 09:20
Αίθριος
Αίθριος
 Ανεμοι από ΒΒΔ
Ανεμος: ΒΒΔ 24 km/h
Θερμοκρασία: 27°C
Δείκτης Δυσφορίας: 28°C
Σημείο Δρόσου: 19°C
Υγρασία: 62%
Βαρόμετρο: 1012 hPa
Περίληψη: Αίθριος
Ορατότητα: πάνω από 10 km
2024/06/14 06:20 LGZA 140620Z 33013KT CAVOK 27/19 Q1012
LGKR - Corfu Island-Elev 2m
Απόσταση από σταθμό: ΔΝΔ 282km
Ενημερώθηκε: 14/06/2024 09:20
Διάσπαρτα Νέφη
Διάσπαρτα Νέφη
 Ανεμοι από ΔΒΔ
Ανεμος: ΔΒΔ 24 km/h
Θερμοκρασία: 24°C
Σημείο Δρόσου: 18°C
Υγρασία: 69%
Βαρόμετρο: 1011 hPa
Νέφωση: Διάσπαρτα Νέφη
Ορατότητα: 10 km
Λεπτομέρειες Νεφών: Διάσπαρτα Νέφη 762 m
2024/06/14 06:20 LGKR 140620Z 30013KT 9999 FEW025 24/18 Q1011 NOSIG
 
LGSO - Syros Island-Elev 72m
Απόσταση από σταθμό: ΝΝΑ 397km
Ενημερώθηκε: 14/06/2024 08:50
Μερικώς νεφελώδης
Μερικώς νεφελώδης
 Ανεμοι από ΝΝΔ
Ανεμος: ΝΝΔ 22 km/h
Θερμοκρασία: 29°C
Δείκτης Δυσφορίας: 29°C
Σημείο Δρόσου: 18°C
Υγρασία: 51%
Βαρόμετρο: 1008 hPa
Νέφωση: Μερικώς νεφελώδης
Ορατότητα: 10 km
Λεπτομέρειες Νεφών: Μερικώς νεφελώδης 610 m
2024/06/14 05:50 LGSO 140550Z 21012KT 170V240 9999 SCT020 29/18 Q1008
LGMK - Mikonos Island-Elev 123m
Απόσταση από σταθμό: ΝΝΑ 412km
Ενημερώθηκε: 14/06/2024 09:20
Αίθριος
Αίθριος
 Ανεμοι από ΝΝΑ
Ανεμος: ΝΝΑ 33 km/h
Θερμοκρασία: 29°C
Δείκτης Δυσφορίας: 29°C
Σημείο Δρόσου: 16°C
Υγρασία: 45%
Βαρόμετρο: 1008 hPa
Περίληψη: Αίθριος
Ορατότητα: πάνω από 10 km
2024/06/14 06:20 LGMK 140620Z 16018KT CAVOK 29/16 Q1008
 
LGSR - Santorini Island-Elev 40m
Απόσταση από σταθμό: ΝΝΑ 520km
Ενημερώθηκε: 14/06/2024 09:20
Διάσπαρτα Νέφη
Διάσπαρτα Νέφη
 Ανεμοι από ΔΝΔ
Ανεμος: ΔΝΔ 30 km/h
Θερμοκρασία: 34°C
Σημείο Δρόσου: 15°C
Υγρασία: 32%
Βαρόμετρο: 1009 hPa
Νέφωση: Διάσπαρτα Νέφη
Ορατότητα: 10 km
Λεπτομέρειες Νεφών: Διάσπαρτα Νέφη 610 m
2024/06/14 06:20 LGSR 140620Z 25016KT 9999 FEW020 34/15 Q1009
LGKL - Kalamata-Elev 8m
Απόσταση από σταθμό: Ν 405km
Ενημερώθηκε: 14/06/2024 09:20
Σχεδόν νεφελώδης
Σχεδόν νεφελώδης
 Ανεμοι από ΒΒΑ
Ανεμος: ΒΒΑ 11 km/h
Θερμοκρασία: 27°C
Δείκτης Δυσφορίας: 29°C
Σημείο Δρόσου: 21°C
Υγρασία: 70%
Βαρόμετρο: 1011 hPa
Νέφωση: Σχεδόν νεφελώδης
Ορατότητα: 10 km
Λεπτομέρειες Νεφών: Διάσπαρτα Νέφη 914 m
Σχεδόν νεφελώδης 2438 m
2024/06/14 06:20 LGKL 140620Z 02006KT 9999 FEW030 BKN080 27/21 Q1011
 
LGIR - Iraklion/Crete-Elev 5m
Απόσταση από σταθμό: ΝΝΑ 622km
Ενημερώθηκε: 14/06/2024 09:20
Αίθριος
Αίθριος
 Ανεμοι από ΒΑ
Ανεμος: ΒΑ 7 km/h
Θερμοκρασία: 32°C
Δείκτης Δυσφορίας: 33°C
Σημείο Δρόσου: 17°C
Υγρασία: 41%
Βαρόμετρο: 1010 hPa
Περίληψη: Αίθριος
Ορατότητα: πάνω από 10 km
2024/06/14 06:20 LGIR 140620Z 05004KT CAVOK 32/17 Q1010 NOSIG
LGRP - Rhodes-Elev 5m
Απόσταση από σταθμό: ΝΑ 649km
Ενημερώθηκε: 14/06/2024 09:20
Αίθριος
Αίθριος
 Ανεμοι από Δ
Ανεμος: Δ 13 km/h
Θερμοκρασία: 31°C
Δείκτης Δυσφορίας: 32°C
Σημείο Δρόσου: 17°C
Υγρασία: 43%
Βαρόμετρο: 1009 hPa
Περίληψη: Αίθριος
Ορατότητα: πάνω από 10 km
2024/06/14 06:20 LGRP 140620Z 26007KT CAVOK 31/17 Q1009 NOSIG
 
LWOH - Ohrid/FYROM-Elev 761m
Απόσταση από σταθμό: ΔΒΔ 188km
Ενημερώθηκε: 14/06/2024 09:20
Μερικώς νεφελώδης
Μερικώς νεφελώδης
 Ανεμοι από μεταβλητός
Ανεμος: μεταβλητός 6 km/h
Θερμοκρασία: 22°C
Σημείο Δρόσου: 13°C
Υγρασία: 57%
Βαρόμετρο: 1015 hPa
Νέφωση: Μερικώς νεφελώδης
Ορατότητα: 10 km
Λεπτομέρειες Νεφών: Μερικώς νεφελώδης 1067 m
2024/06/14 06:20 LWOH 140620Z VRB03KT 9999 SCT035 22/13 Q1015
LBSF - Sofia/Bulgaria-Elev 595m
Απόσταση από σταθμό: Β 227km
Ενημερώθηκε: 14/06/2024 09:00
Ασθενής καταιγίδα, Βροχή, Συννεφιά
Ασθενής καταιγίδα, Βροχή, Συννεφιά
 Ανεμοι από ΔΒΔ
Ανεμος: ΔΒΔ 26 km/h
Θερμοκρασία: 15°C
Σημείο Δρόσου: 13°C
Υγρασία: 88%
Βαρόμετρο: 1014 hPa
Περίληψη: Ασθενής καταιγίδα, Βροχή
Νέφωση: Συννεφιά
Ορατότητα: 10 km
Λεπτομέρειες Νεφών: Διάσπαρτα Νέφη 914 m
Σχεδόν νεφελώδης 1219 m
Συννεφιά 1554 m
2024/06/14 06:00 LBSF 140600Z 29014KT 9999 -TSRA FEW030CB BKN040 OVC051 15/13 Q1014 TEMPO 29016G28KT 5000 TSRA SCT030CB BKN045